»·PEaware :: UAL485 KPDX-KRNO

UAL485 :: KPDX-KRNO

FLIGHT INFORMATION

Flight Status: Arrived
Operator:
United Airlines
More flights by this operator :: More flights under this callsign
Pilot: Anonymous 15267 (15267)
Aircraft: AIRBUS A320
(A320)
More flights by this aircraft type
Origin: KPDX Portland Intl
United States
Destination: KRNO Reno/Tahoe Intl
United States
More flights between these airports :: More routes between these airports
Route: +CASCD2 PAWLI BAARB J5 HARTT HARRT1
File this flight plan on PilotEdge
Remarks: / L
Altitude:
(Current/Filed)
37,000ft
Speed:
(Current/Filed)
450kts
Departed: 06-May-18 11:03 AM
Arrived: 06-May-18 12:44 PM
Distance/Time
Traveled:
386nm/1:41
Distance/Time
To Go:
Arrived

Flight Plot

Page will automatically refresh every two minutes.

Flight plan parsing failed; only flown route is shown


Map Options




Map Legend


Flown Route
Filed Route
Departure Airport
Arrival Airport
Navaid (VOR, NDB)
Fix

Horizontal Profiles

Position Reports

Time Latitude Longitude Heading Altitude Ground
Speed
06-May-18 09:42 45.590228 -122.591577 209 38ft 0kts
06-May-18 09:43 45.590228 -122.591577 209 38ft 0kts
06-May-18 09:44 45.590228 -122.591577 209 38ft 0kts
06-May-18 09:45 45.590228 -122.591577 209 38ft 0kts
06-May-18 09:46 45.590228 -122.591577 209 38ft 0kts
06-May-18 09:47 45.590228 -122.591577 209 38ft 0kts
06-May-18 09:48 45.590228 -122.591577 209 38ft 0kts
06-May-18 09:49 45.590228 -122.591577 209 38ft 0kts
06-May-18 09:50 45.590228 -122.591577 209 38ft 0kts
06-May-18 09:51 45.590228 -122.591577 209 38ft 0kts
06-May-18 09:52 45.590228 -122.591577 209 38ft 0kts
06-May-18 09:53 45.590228 -122.591577 209 38ft 0kts
06-May-18 09:54 45.590228 -122.591577 209 38ft 0kts
06-May-18 09:55 45.590228 -122.591577 209 38ft 0kts
06-May-18 09:56 45.590228 -122.591577 209 38ft 0kts
06-May-18 09:57 45.590228 -122.591577 209 38ft 0kts
06-May-18 09:58 45.590228 -122.591577 209 38ft 0kts
06-May-18 09:59 45.590228 -122.591577 209 38ft 0kts
06-May-18 10:00 45.590228 -122.591577 209 38ft 0kts
06-May-18 10:01 45.590228 -122.591577 209 38ft 0kts
06-May-18 10:02 45.590228 -122.591577 209 38ft 0kts
06-May-18 10:03 45.590228 -122.591577 209 38ft 0kts
06-May-18 10:04 45.590228 -122.591577 209 38ft 0kts
06-May-18 10:05 45.590228 -122.591577 209 38ft 0kts
06-May-18 10:06 45.590228 -122.591577 209 38ft 0kts
06-May-18 10:07 45.590228 -122.591577 209 38ft 0kts
06-May-18 10:08 45.590228 -122.591577 209 38ft 0kts
06-May-18 10:09 45.590228 -122.591577 209 38ft 0kts
06-May-18 10:10 45.590228 -122.591577 209 38ft 0kts
06-May-18 10:11 45.590228 -122.591577 209 38ft 0kts
06-May-18 10:12 45.590228 -122.591577 209 38ft 0kts
06-May-18 10:13 45.590228 -122.591577 209 38ft 0kts
06-May-18 10:14 45.590228 -122.591577 209 38ft 0kts
06-May-18 10:15 45.590228 -122.591577 209 38ft 0kts
06-May-18 10:16 45.590228 -122.591577 209 38ft 0kts
06-May-18 10:17 45.590228 -122.591577 209 38ft 0kts
06-May-18 10:18 45.590228 -122.591577 209 38ft 0kts
06-May-18 10:19 45.590228 -122.591577 209 38ft 0kts
06-May-18 10:20 45.590228 -122.591577 209 38ft 0kts
06-May-18 10:21 45.590228 -122.591577 209 38ft 0kts
06-May-18 10:22 45.590228 -122.591577 209 38ft 0kts
06-May-18 10:23 45.590228 -122.591577 209 38ft 0kts
06-May-18 10:24 45.590228 -122.591577 209 38ft 0kts
06-May-18 10:25 45.590228 -122.591577 209 38ft 0kts
06-May-18 10:26 45.590228 -122.591577 209 38ft 0kts
06-May-18 10:27 45.590228 -122.591577 209 38ft 0kts
06-May-18 10:28 45.590228 -122.591577 209 38ft 0kts
06-May-18 10:29 45.590228 -122.591577 209 38ft 0kts
06-May-18 10:30 45.590228 -122.591577 209 38ft 0kts
06-May-18 10:31 45.590228 -122.591577 209 38ft 0kts
06-May-18 10:32 45.590228 -122.591577 209 38ft 0kts
06-May-18 10:33 45.590228 -122.591577 209 38ft 0kts
06-May-18 10:34 45.590228 -122.591577 209 38ft 0kts
06-May-18 10:35 45.590228 -122.591577 209 38ft 0kts
06-May-18 10:36 45.590228 -122.591577 209 38ft 0kts
06-May-18 10:36 45.590228 -122.591577 209 38ft 0kts
06-May-18 10:37 45.590228 -122.591577 209 38ft 0kts
06-May-18 10:38 45.590228 -122.591577 209 38ft 0kts
06-May-18 10:39 45.590228 -122.591577 209 38ft 0kts
06-May-18 10:40 45.590228 -122.591577 209 38ft 0kts
06-May-18 10:42 45.590228 -122.591577 209 38ft 0kts
06-May-18 10:43 45.590228 -122.591577 209 38ft 0kts
06-May-18 10:43 45.590228 -122.591577 209 38ft 0kts
06-May-18 10:44 45.590228 -122.591577 209 38ft 0kts
06-May-18 10:45 45.590228 -122.591577 209 38ft 0kts
06-May-18 10:46 45.590228 -122.591577 209 38ft 0kts
06-May-18 10:47 45.590228 -122.591577 209 38ft 0kts
06-May-18 10:48 45.590228 -122.591577 209 38ft 0kts
06-May-18 10:49 45.590228 -122.591577 209 38ft 0kts
06-May-18 10:50 45.590320 -122.591501 209 38ft 2kts
06-May-18 10:51 45.590817 -122.591228 169 38ft 2kts
06-May-18 10:52 45.591128 -122.591571 117 38ft 0kts
06-May-18 10:53 45.591128 -122.591570 117 38ft 0kts
06-May-18 10:54 45.591128 -122.591570 117 38ft 0kts
06-May-18 10:55 45.591128 -122.591570 117 38ft 0kts
06-May-18 10:56 45.590558 -122.590057 118 38ft 8kts
06-May-18 10:57 45.589591 -122.585467 119 38ft 21kts
06-May-18 10:58 45.586488 -122.577534 118 38ft 23kts
06-May-18 10:59 45.583167 -122.568870 119 38ft 21kts
06-May-18 11:00 45.582729 -122.567522 80 38ft 0kts
06-May-18 11:01 45.582729 -122.567522 80 38ft 0kts
06-May-18 11:02 45.584323 -122.568762 299 38ft 45kts
06-May-18 11:03 45.603515 -122.616802 297 1780ft 176kts
06-May-18 11:04 45.624682 -122.691294 300 4102ft 248kts
06-May-18 11:05 45.662582 -122.783592 299 7157ft 283kts
06-May-18 11:06 45.656562 -122.890857 235 10458ft 289kts
06-May-18 11:07 45.590634 -122.915859 164 12661ft 320kts
06-May-18 11:08 45.513095 -122.850048 134 15006ft 349kts
06-May-18 11:09 45.446342 -122.744746 135 17113ft 372kts
06-May-18 11:10 45.376070 -122.635290 135 19317ft 383kts
06-May-18 11:11 45.304081 -122.523787 135 21319ft 393kts
06-May-18 11:13 45.229932 -122.409451 136 23152ft 401kts
06-May-18 11:14 45.167062 -122.312885 136 24525ft 409kts
06-May-18 11:15 45.089561 -122.194328 137 25883ft 421kts
06-May-18 11:16 44.993818 -122.106589 159 27158ft 420kts
06-May-18 11:17 44.892067 -122.038491 159 28321ft 429kts
06-May-18 11:18 44.784567 -121.966783 159 29383ft 440kts
06-May-18 11:19 44.674165 -121.893461 159 30384ft 449kts
06-May-18 11:20 44.561467 -121.818930 159 31354ft 456kts
06-May-18 11:21 44.447372 -121.743807 159 32210ft 463kts
06-May-18 11:22 44.332255 -121.668305 160 33295ft 461kts
06-May-18 11:23 44.218711 -121.594189 160 34255ft 460kts
06-May-18 11:24 44.103903 -121.519573 160 35177ft 459kts
06-May-18 11:25 43.989808 -121.445739 160 36026ft 458kts
06-May-18 11:26 43.878402 -121.373953 160 36747ft 457kts
06-May-18 11:27 43.765183 -121.301305 160 37155ft 458kts
06-May-18 11:28 43.650964 -121.228308 160 37158ft 457kts
06-May-18 11:29 43.536785 -121.155649 160 37160ft 457kts
06-May-18 11:30 43.422535 -121.083080 160 37161ft 457kts
06-May-18 11:31 43.308762 -121.011301 160 37162ft 458kts
06-May-18 11:32 43.194312 -120.939529 162 37159ft 457kts
06-May-18 11:33 43.075961 -120.887114 168 37163ft 452kts
06-May-18 11:34 42.957486 -120.837884 168 37227ft 451kts
06-May-18 11:35 42.839135 -120.788921 168 37213ft 451kts
06-May-18 11:36 42.720179 -120.739891 168 37212ft 451kts
06-May-18 11:37 42.600644 -120.690834 168 37210ft 451kts
06-May-18 11:38 42.481540 -120.642150 168 37211ft 451kts
06-May-18 11:39 42.362547 -120.593704 168 37209ft 451kts
06-May-18 11:40 42.244101 -120.545672 168 37209ft 451kts
06-May-18 11:41 42.126253 -120.498067 168 37212ft 451kts
06-May-18 11:42 42.007495 -120.450282 168 37215ft 451kts
06-May-18 11:43 41.888399 -120.402548 168 37214ft 451kts
06-May-18 11:44 41.770351 -120.355419 168 37187ft 452kts
06-May-18 11:45 41.651953 -120.308322 169 37186ft 451kts
06-May-18 11:46 41.533998 -120.261590 169 36942ft 450kts
06-May-18 11:47 41.416096 -120.215048 169 35992ft 449kts
06-May-18 11:48 41.298523 -120.168799 169 35045ft 444kts
06-May-18 11:49 41.183182 -120.123575 169 33190ft 432kts
06-May-18 11:50 41.070042 -120.088363 173 31298ft 418kts
06-May-18 11:51 40.959746 -120.056651 173 29443ft 406kts
06-May-18 11:52 40.852587 -120.025969 173 27646ft 397kts
06-May-18 11:53 40.751373 -119.993748 171 26629ft 366kts
06-May-18 11:54 40.655114 -119.962742 171 24974ft 355kts
06-May-18 11:55 40.561673 -119.932699 171 23292ft 345kts
06-May-18 11:56 40.470090 -119.903330 171 21510ft 339kts
06-May-18 11:57 40.380231 -119.874564 170 19778ft 332kts
06-May-18 11:58 40.292231 -119.846360 170 18090ft 326kts
06-May-18 11:59 40.206261 -119.819235 170 16502ft 317kts
06-May-18 12:00 40.123011 -119.792756 170 15232ft 299kts
06-May-18 12:01 40.045688 -119.768250 170 14704ft 284kts
06-May-18 12:02 39.969982 -119.765789 186 13773ft 278kts
06-May-18 12:03 39.896858 -119.768519 183 12819ft 260kts
06-May-18 12:04 39.831550 -119.768384 182 12339ft 230kts
06-May-18 12:05 39.771729 -119.768456 182 11344ft 211kts
06-May-18 12:06 39.714572 -119.768606 181 9618ft 207kts
06-May-18 12:07 39.658297 -119.768890 182 8296ft 202kts
06-May-18 12:08 39.602355 -119.768626 182 9419ft 209kts
06-May-18 12:09 39.544259 -119.769138 182 10498ft 216kts
06-May-18 12:10 39.484094 -119.770151 182 11044ft 216kts
06-May-18 12:11 39.424562 -119.771092 182 11046ft 217kts
06-May-18 12:12 39.364523 -119.772087 182 11044ft 217kts
06-May-18 12:13 39.304739 -119.773001 182 11044ft 218kts
06-May-18 12:14 39.245055 -119.773883 178 11043ft 218kts
06-May-18 12:15 39.224528 -119.712555 50 11051ft 242kts
06-May-18 12:16 39.285551 -119.680060 16 11045ft 241kts
06-May-18 12:17 39.349399 -119.654126 17 11045ft 243kts
06-May-18 12:18 39.413191 -119.627356 17 11046ft 241kts
06-May-18 12:19 39.476931 -119.600375 17 11046ft 242kts
06-May-18 12:20 39.541009 -119.573323 17 11045ft 242kts
06-May-18 12:25 39.355720 -119.653035 9 11037ft 221kts
06-May-18 12:26 39.415926 -119.628286 16 11041ft 232kts
06-May-18 12:27 39.478122 -119.600587 16 11041ft 240kts
06-May-18 12:28 39.541706 -119.573265 17 11043ft 242kts
06-May-18 12:29 39.605357 -119.546238 17 11046ft 242kts
06-May-18 12:30 39.669938 -119.518868 16 11073ft 245kts
06-May-18 12:31 39.734811 -119.491842 11 11075ft 246kts
06-May-18 12:32 39.801770 -119.484541 0 11071ft 244kts
06-May-18 12:33 39.868444 -119.476803 337 11035ft 238kts
06-May-18 12:34 39.894136 -119.544279 273 10101ft 219kts
06-May-18 12:35 39.902356 -119.622217 273 9715ft 218kts
06-May-18 12:36 39.874809 -119.678456 203 9321ft 206kts
06-May-18 12:37 39.822319 -119.708292 204 8642ft 207kts
06-May-18 12:38 39.769690 -119.738465 204 7655ft 208kts
06-May-18 12:39 39.718345 -119.766041 190 7569ft 198kts
06-May-18 12:40 39.667043 -119.768750 182 7491ft 176kts
06-May-18 12:41 39.620288 -119.768972 183 6654ft 167kts
06-May-18 12:42 39.573145 -119.769038 182 5703ft 170kts
06-May-18 12:43 39.526438 -119.769129 182 4776ft 167kts
06-May-18 12:44 39.494199 -119.769364 175 4420ft 27kts
06-May-18 12:45 39.492525 -119.771140 289 4420ft 11kts
06-May-18 12:46 39.496346 -119.771524 0 4420ft 13kts
06-May-18 12:47 39.501687 -119.771512 0 4420ft 21kts
06-May-18 12:48 39.505800 -119.772076 277 4420ft 7kts
06-May-18 12:49 39.506593 -119.772620 0 4420ft 0kts

Navigation Log

Ident Type
Flight plan parsing failed, navigation log unavailable